Time;durP1;ratioP1;P1;durP2;ratioP2;P2;SDS_P1;SDS_P2;PMS_P1;PMS_P2;Temp;Humidity;BMP_temperature;BMP_pressure;BME280_temperature;BME280_humidity;BME280_pressure;Samples;Min_cycle;Max_cycle;Signal;HPM_P1;HPM_P2
2022/01/05 00:01:06;;;;;;;15.18;2.53;;;2.70;99.90;;;;;;5039227;28;20036;-73
2022/01/05 00:03:32;;;;;;;12.30;2.47;;;2.60;99.90;;;;;;5055747;28;20131;-74
2022/01/05 00:05:57;;;;;;;12.63;1.98;;;2.60;99.90;;;;;;5055762;28;20127;-74
2022/01/05 00:08:25;;;;;;;10.15;1.95;;;2.50;99.90;;;;;;5055499;28;20044;-73
2022/01/05 00:10:51;;;;;;;11.45;1.88;;;2.50;99.90;;;;;;5055592;28;20044;-73
2022/01/05 00:13:18;;;;;;;12.90;2.20;;;2.50;99.90;;;;;;5040141;28;20440;-73
2022/01/05 00:15:43;;;;;;;9.23;2.38;;;2.60;99.90;;;;;;5055826;28;20033;-74
2022/01/05 00:18:09;;;;;;;11.73;1.75;;;2.60;99.90;;;;;;5038953;28;20045;-74
2022/01/05 00:20:34;;;;;;;10.38;2.00;;;2.70;99.90;;;;;;5055438;28;20127;-73
2022/01/05 00:23:00;;;;;;;8.40;1.30;;;2.80;99.90;;;;;;5055418;28;20074;-75
2022/01/05 00:25:26;;;;;;;13.50;2.25;;;2.90;99.90;;;;;;5055100;28;20033;-73
2022/01/05 00:27:51;;;;;;;11.05;1.73;;;2.90;99.90;;;;;;5055404;28;20105;-73
2022/01/05 00:30:18;;;;;;;11.05;2.10;;;3.00;99.90;;;;;;5055649;28;20051;-74
2022/01/05 00:32:43;;;;;;;9.05;1.77;;;3.10;99.90;;;;;;5055342;28;20040;-73
2022/01/05 00:35:09;;;;;;;11.77;2.20;;;3.10;99.90;;;;;;5055231;28;20114;-73
2022/01/05 00:37:35;;;;;;;10.90;1.60;;;3.10;99.90;;;;;;5055333;28;20037;-73
2022/01/05 00:40:02;;;;;;;9.02;1.67;;;3.20;99.90;;;;;;5055354;28;20037;-73
2022/01/05 00:42:28;;;;;;;10.32;1.60;;;3.10;99.90;;;;;;5055350;28;20489;-73
2022/01/05 00:44:53;;;;;;;8.40;1.63;;;3.10;99.90;;;;;;5055120;28;20037;-73
2022/01/05 00:47:19;;;;;;;11.52;1.65;;;3.10;99.90;;;;;;5055151;28;20082;-73
2022/01/05 00:49:44;;;;;;;16.17;1.67;;;3.10;99.90;;;;;;5054991;28;20041;-73
2022/01/05 00:52:10;;;;;;;10.90;1.60;;;3.00;99.90;;;;;;5054967;28;20072;-73
2022/01/05 00:54:35;;;;;;;12.50;2.60;;;3.00;99.90;;;;;;5055053;28;20127;-74
2022/01/05 00:57:01;;;;;;;8.20;1.45;;;2.90;99.90;;;;;;5055567;28;20079;-74
2022/01/05 00:59:26;;;;;;;8.77;1.45;;;2.90;99.90;;;;;;5054949;28;20424;-74
2022/01/05 01:01:52;;;;;;;7.25;1.50;;;2.90;99.90;;;;;;5055008;28;20044;-73
2022/01/05 01:04:18;;;;;;;8.80;2.22;;;2.80;99.90;;;;;;5055796;28;20071;-73
2022/01/05 01:06:43;;;;;;;7.93;1.30;;;2.80;99.90;;;;;;5055173;28;20037;-74
2022/01/05 01:09:09;;;;;;;10.10;1.60;;;2.70;99.90;;;;;;5054631;28;20436;-73
2022/01/05 01:11:35;;;;;;;14.27;1.98;;;2.80;99.90;;;;;;5054848;28;20047;-73
2022/01/05 01:14:01;;;;;;;10.30;1.60;;;2.70;99.90;;;;;;5054814;28;20042;-74
2022/01/05 01:16:26;;;;;;;12.90;1.77;;;2.70;99.90;;;;;;5055111;28;20036;-74
2022/01/05 01:18:52;;;;;;;11.73;1.80;;;2.70;99.90;;;;;;5054729;28;20127;-74
2022/01/05 01:21:17;;;;;;;9.82;1.83;;;2.70;99.90;;;;;;5054774;28;20067;-74
2022/01/05 01:23:54;;;;;;;15.65;2.17;;;2.70;99.90;;;;;;5054755;28;20044;-74
2022/01/05 01:26:19;;;;;;;11.98;1.90;;;2.70;99.90;;;;;;5055039;28;20037;-74
2022/01/05 01:28:45;;;;;;;10.43;1.77;;;2.70;99.90;;;;;;5054606;28;20459;-73
2022/01/05 01:31:11;;;;;;;11.23;1.80;;;2.60;99.90;;;;;;5038349;28;20033;-74
2022/01/05 01:33:36;;;;;;;10.85;2.13;;;2.70;99.90;;;;;;5054630;28;20489;-74
2022/01/05 01:36:02;;;;;;;10.80;1.98;;;2.70;99.90;;;;;;5054641;28;20457;-74
2022/01/05 01:38:28;;;;;;;10.10;1.80;;;2.70;99.90;;;;;;5040609;28;20036;-74
2022/01/05 01:40:54;;;;;;;8.85;1.73;;;2.70;99.90;;;;;;5058408;28;20412;-74
2022/01/05 01:43:19;;;;;;;14.23;2.08;;;2.70;99.90;;;;;;5041752;28;20056;-74
2022/01/05 01:45:45;;;;;;;8.75;1.70;;;2.70;99.90;;;;;;5058329;28;20040;-74
2022/01/05 01:48:11;;;;;;;13.57;2.42;;;2.70;99.90;;;;;;5058298;28;20074;-73
2022/01/05 01:50:36;;;;;;;14.45;1.88;;;2.70;99.90;;;;;;5041653;28;20090;-73
2022/01/05 01:53:02;;;;;;;15.88;2.05;;;2.80;99.90;;;;;;5058141;28;20115;-74
2022/01/05 01:55:28;;;;;;;11.05;1.85;;;2.80;99.90;;;;;;5041917;28;20084;-74
2022/01/05 01:57:55;;;;;;;11.98;2.40;;;2.80;99.90;;;;;;5041513;28;20044;-74
2022/01/05 02:00:21;;;;;;;12.52;2.40;;;2.80;99.90;;;;;;5058317;28;20059;-74
2022/01/05 02:02:46;;;;;;;16.58;2.30;;;2.80;99.90;;;;;;5057991;28;20449;-74
2022/01/05 02:05:12;;;;;;;11.80;1.90;;;2.80;99.90;;;;;;5058187;28;20129;-74
2022/01/05 02:07:38;;;;;;;14.35;2.20;;;2.80;99.90;;;;;;5057879;28;20489;-74
2022/01/05 02:10:09;;;;;;;11.77;2.13;;;2.80;99.90;;;;;;5041020;28;20040;-74
2022/01/05 02:12:35;;;;;;;9.32;1.55;;;2.80;99.90;;;;;;5041185;28;20040;-73
2022/01/05 02:15:01;;;;;;;11.65;1.92;;;2.80;99.90;;;;;;5041212;28;20040;-73
2022/01/05 02:17:49;;;;;;;13.85;1.95;;;2.70;99.90;;;;;;5057668;28;20063;-73
2022/01/05 02:20:24;;;;;;;13.70;1.90;;;2.70;99.90;;;;;;5057866;28;20079;-73
2022/01/05 02:22:51;;;;;;;15.95;2.20;;;2.70;99.90;;;;;;5041342;28;20079;-73
2022/01/05 02:25:16;;;;;;;9.27;2.03;;;2.70;99.90;;;;;;5041589;28;20052;-73
2022/01/05 02:27:44;;;;;;;12.27;2.00;;;2.70;99.90;;;;;;5057871;28;20059;-73
2022/01/05 02:30:12;;;;;;;14.45;2.33;;;2.70;99.90;;;;;;5057426;28;20086;-72
2022/01/05 02:32:38;;;;;;;14.18;2.20;;;2.60;99.90;;;;;;5040811;28;20047;-72
2022/01/05 02:35:05;;;;;;;9.48;1.65;;;2.70;99.90;;;;;;5057644;28;20033;-72
2022/01/05 02:37:31;;;;;;;10.70;2.17;;;2.60;99.90;;;;;;5057590;28;20032;-72
2022/01/05 02:39:57;;;;;;;12.32;2.10;;;2.60;99.90;;;;;;5057335;28;20033;-72
2022/01/05 02:42:29;;;;;;;21.85;3.40;;;2.60;99.90;;;;;;5057324;28;20045;-72
2022/01/05 02:44:56;;;;;;;17.42;3.85;;;2.70;99.90;;;;;;5057498;28;20048;-72
2022/01/05 02:47:22;;;;;;;12.65;2.25;;;2.60;99.90;;;;;;5057162;28;20497;-72
2022/01/05 02:49:48;;;;;;;16.40;2.70;;;2.60;99.90;;;;;;5056835;28;20051;-72
2022/01/05 02:52:14;;;;;;;11.80;2.40;;;2.60;99.90;;;;;;5056980;28;20083;-72
2022/01/05 02:54:43;;;;;;;12.82;2.60;;;2.70;99.90;;;;;;5040414;28;20047;-72
2022/01/05 02:57:09;;;;;;;13.60;2.30;;;2.70;99.90;;;;;;5057018;28;20033;-72
2022/01/05 02:59:35;;;;;;;14.73;2.75;;;2.60;99.90;;;;;;5057336;28;20028;-72
2022/01/05 03:02:01;;;;;;;12.80;2.45;;;2.70;99.90;;;;;;5057018;28;20032;-72
2022/01/05 03:04:26;;;;;;;15.32;2.50;;;2.70;99.90;;;;;;5056755;28;20032;-72
2022/01/05 03:06:53;;;;;;;11.63;2.45;;;2.70;99.90;;;;;;5057134;28;20028;-72
2022/01/05 03:09:19;;;;;;;9.80;2.08;;;2.70;99.90;;;;;;5056641;28;20036;-72
2022/01/05 03:11:44;;;;;;;12.60;2.58;;;2.70;99.90;;;;;;5040040;28;20098;-72
2022/01/05 03:14:10;;;;;;;16.17;2.53;;;2.80;99.90;;;;;;5056922;28;20039;-72
2022/01/05 03:16:36;;;;;;;19.08;2.78;;;2.80;99.90;;;;;;5057506;28;20419;-72
2022/01/05 03:19:02;;;;;;;19.13;2.85;;;2.80;99.90;;;;;;5056522;28;20123;-72
2022/01/05 03:21:27;;;;;;;14.05;2.70;;;2.80;99.90;;;;;;5056562;28;20075;-72
2022/01/05 03:23:53;;;;;;;11.60;2.30;;;2.80;99.90;;;;;;5056546;28;20068;-72
2022/01/05 03:26:19;;;;;;;10.98;2.20;;;2.90;99.90;;;;;;5056437;28;20058;-73
2022/01/05 03:28:44;;;;;;;18.10;2.50;;;2.90;99.90;;;;;;5039774;28;20037;-73
2022/01/05 03:31:10;;;;;;;13.10;2.30;;;3.00;99.90;;;;;;5056607;28;20052;-73
2022/01/05 03:33:35;;;;;;;19.83;3.58;;;3.00;99.90;;;;;;5039703;28;20075;-73
2022/01/05 03:36:01;;;;;;;20.17;2.88;;;3.10;99.90;;;;;;5056289;28;20071;-73
2022/01/05 03:38:28;;;;;;;22.75;4.47;;;3.10;99.90;;;;;;5039824;28;20080;-73
2022/01/05 03:40:54;;;;;;;18.85;2.88;;;3.10;99.90;;;;;;5056212;28;20036;-73
2022/01/05 03:43:19;;;;;;;18.92;3.08;;;3.10;99.90;;;;;;5039470;28;20097;-72
2022/01/05 03:45:45;;;;;;;14.88;2.97;;;3.20;99.90;;;;;;5056368;28;20121;-72
2022/01/05 03:48:13;;;;;;;16.65;2.45;;;3.20;99.90;;;;;;5056000;28;20040;-72
2022/01/05 03:50:40;;;;;;;15.98;2.95;;;3.20;99.90;;;;;;5055921;28;20047;-72
2022/01/05 03:53:06;;;;;;;15.52;2.78;;;3.20;99.90;;;;;;5055913;28;20119;-72
2022/01/05 03:55:33;;;;;;;15.23;2.70;;;3.20;99.90;;;;;;5055896;28;20032;-72
2022/01/05 03:57:59;;;;;;;14.88;2.78;;;3.30;99.90;;;;;;5056088;28;20028;-72
2022/01/05 04:00:29;;;;;;;16.25;2.75;;;3.20;99.90;;;;;;5055414;28;20492;-72
2022/01/05 04:02:56;;;;;;;12.85;2.70;;;3.30;99.90;;;;;;5055807;28;20090;-73
2022/01/05 04:05:22;;;;;;;14.48;2.50;;;3.20;99.90;;;;;;5039039;28;20043;-73
2022/01/05 04:07:49;;;;;;;19.77;2.80;;;3.30;99.90;;;;;;5055650;28;20037;-73
2022/01/05 04:10:15;;;;;;;18.00;3.22;;;3.30;99.90;;;;;;5055755;28;20036;-72
2022/01/05 04:12:41;;;;;;;16.15;2.60;;;3.30;99.90;;;;;;5055437;28;20041;-72
2022/01/05 04:15:07;;;;;;;19.80;2.63;;;3.30;99.90;;;;;;5055664;28;20036;-72
2022/01/05 04:17:33;;;;;;;18.08;2.92;;;3.30;99.90;;;;;;5055783;28;20135;-72
2022/01/05 04:19:58;;;;;;;18.40;2.88;;;3.30;99.90;;;;;;5055422;28;20071;-72
2022/01/05 04:22:24;;;;;;;15.27;2.75;;;3.30;99.90;;;;;;5055670;28;20040;-73
2022/01/05 04:24:50;;;;;;;20.50;3.00;;;3.40;99.90;;;;;;5055436;28;20520;-73
2022/01/05 04:27:15;;;;;;;13.88;2.35;;;3.40;99.90;;;;;;5055359;28;20127;-73
2022/01/05 04:29:42;;;;;;;13.57;2.17;;;3.40;99.90;;;;;;5055371;28;20127;-72
2022/01/05 04:32:08;;;;;;;16.13;2.58;;;3.50;99.90;;;;;;5038635;28;20048;-72
2022/01/05 04:34:33;;;;;;;18.52;2.92;;;3.60;99.90;;;;;;5055289;28;20046;-72
2022/01/05 04:36:59;;;;;;;8.85;1.80;;;3.60;99.90;;;;;;5038937;28;20055;-72
2022/01/05 04:39:25;;;;;;;16.27;2.80;;;3.60;99.90;;;;;;5055136;28;20503;-72
2022/01/05 04:41:50;;;;;;;12.50;2.40;;;3.70;99.90;;;;;;5055179;28;20043;-72
2022/01/05 04:44:16;;;;;;;12.85;1.95;;;3.70;99.90;;;;;;5055185;28;20029;-72
2022/01/05 04:46:41;;;;;;;11.70;2.22;;;3.70;99.90;;;;;;5038491;28;20055;-72
2022/01/05 04:49:07;;;;;;;10.82;1.92;;;3.70;99.90;;;;;;5055034;28;20041;-72
2022/01/05 04:51:33;;;;;;;10.38;2.03;;;3.70;99.90;;;;;;5038529;28;20040;-72
2022/01/05 04:53:58;;;;;;;12.60;2.75;;;3.70;99.90;;;;;;5038444;28;20047;-72
2022/01/05 04:56:24;;;;;;;13.13;2.20;;;3.70;99.90;;;;;;5055009;28;20037;-72
2022/01/05 04:58:49;;;;;;;17.20;2.10;;;3.70;99.90;;;;;;5038352;28;20079;-72
2022/01/05 05:01:15;;;;;;;16.55;2.40;;;3.70;99.90;;;;;;5038660;28;20043;-72
2022/01/05 05:03:40;;;;;;;18.38;2.35;;;3.70;99.90;;;;;;5038444;28;20052;-72
2022/01/05 05:06:06;;;;;;;10.60;2.08;;;3.70;99.90;;;;;;5038348;28;20048;-72
2022/01/05 05:08:32;;;;;;;11.20;2.42;;;3.70;99.90;;;;;;5054635;28;20051;-72
2022/01/05 05:10:57;;;;;;;14.75;2.45;;;3.70;99.90;;;;;;5038335;28;20032;-72
2022/01/05 05:13:23;;;;;;;12.18;2.33;;;3.70;99.90;;;;;;5058860;28;20087;-72
2022/01/05 05:15:49;;;;;;;14.15;2.15;;;3.70;99.90;;;;;;5058977;28;20033;-73
2022/01/05 05:18:14;;;;;;;15.55;2.22;;;3.70;99.90;;;;;;5058897;28;20032;-73
2022/01/05 05:20:40;;;;;;;13.32;2.45;;;3.80;99.90;;;;;;5042426;28;20098;-73
2022/01/05 05:23:06;;;;;;;12.48;2.30;;;3.80;99.90;;;;;;5058831;28;20045;-73
2022/01/05 05:25:32;;;;;;;18.23;3.10;;;3.80;99.90;;;;;;5058787;28;20047;-73
2022/01/05 05:27:58;;;;;;;15.32;2.88;;;3.80;99.90;;;;;;5058701;28;20033;-73
2022/01/05 05:30:24;;;;;;;11.90;2.10;;;3.80;99.90;;;;;;5058571;28;20079;-73
2022/01/05 05:32:49;;;;;;;15.70;2.80;;;3.80;99.90;;;;;;5058577;28;20047;-73
2022/01/05 05:35:16;;;;;;;16.95;2.60;;;3.90;99.90;;;;;;5058873;28;20071;-72
2022/01/05 05:37:41;;;;;;;15.57;2.00;;;3.90;99.90;;;;;;5058440;28;20040;-73
2022/01/05 05:40:07;;;;;;;18.38;3.13;;;4.00;99.90;;;;;;5041890;28;20040;-73
2022/01/05 05:42:33;;;;;;;22.52;3.35;;;4.00;99.90;;;;;;5058670;28;20040;-72
2022/01/05 05:44:58;;;;;;;17.77;2.45;;;4.00;99.90;;;;;;5058341;28;20522;-72
2022/01/05 05:47:24;;;;;;;18.77;3.05;;;4.00;99.90;;;;;;5058380;28;20051;-72
2022/01/05 05:49:50;;;;;;;13.65;2.30;;;4.00;99.90;;;;;;5058313;28;20051;-72
2022/01/05 05:52:16;;;;;;;19.38;2.85;;;4.10;99.90;;;;;;5041573;28;20086;-72
2022/01/05 05:54:41;;;;;;;13.13;2.40;;;4.10;99.90;;;;;;5058199;28;20048;-72
2022/01/05 05:57:07;;;;;;;16.98;2.58;;;4.10;99.90;;;;;;5058190;28;20041;-72
2022/01/05 05:59:33;;;;;;;17.92;2.75;;;4.10;99.90;;;;;;5058197;28;20043;-72
2022/01/05 06:01:59;;;;;;;16.48;2.25;;;4.10;99.90;;;;;;5058260;28;20036;-72
2022/01/05 06:04:25;;;;;;;17.42;2.88;;;4.10;99.90;;;;;;5058337;28;20024;-72
2022/01/05 06:06:50;;;;;;;16.92;2.72;;;4.10;99.90;;;;;;5058009;28;20485;-72
2022/01/05 06:09:16;;;;;;;15.18;2.50;;;4.10;99.90;;;;;;5057755;28;20119;-72
2022/01/05 06:11:42;;;;;;;16.98;2.88;;;4.20;99.90;;;;;;5041255;28;20032;-72
2022/01/05 06:14:07;;;;;;;17.92;2.47;;;4.10;99.90;;;;;;5057818;28;20042;-73
2022/01/05 06:16:33;;;;;;;12.35;2.17;;;4.20;99.90;;;;;;5058112;28;20082;-73
2022/01/05 06:18:58;;;;;;;15.60;2.72;;;4.20;99.90;;;;;;5057698;28;20458;-73
2022/01/05 06:21:24;;;;;;;13.27;2.40;;;4.20;99.90;;;;;;5041460;28;20123;-73
2022/01/05 06:23:49;;;;;;;16.23;3.00;;;4.10;99.90;;;;;;5057115;28;20520;-73
2022/01/05 06:26:15;;;;;;;17.95;2.72;;;4.10;99.90;;;;;;5057674;28;20459;-73
2022/01/05 06:28:41;;;;;;;21.80;3.50;;;4.10;99.90;;;;;;5057484;28;20041;-73
2022/01/05 06:31:06;;;;;;;13.82;2.72;;;4.10;99.90;;;;;;5058246;28;20218;-73
2022/01/05 06:33:32;;;;;;;14.50;2.92;;;4.10;99.90;;;;;;5057555;28;20119;-73
2022/01/05 06:35:58;;;;;;;16.80;2.72;;;4.10;99.90;;;;;;5040890;28;20037;-73
2022/01/05 06:38:24;;;;;;;14.18;2.35;;;4.10;99.90;;;;;;5057328;28;20108;-73
2022/01/05 06:40:49;;;;;;;15.90;2.60;;;4.20;99.90;;;;;;5057380;28;20115;-73
2022/01/05 06:43:15;;;;;;;16.20;3.35;;;4.20;99.90;;;;;;5057327;28;20090;-73
2022/01/05 06:45:41;;;;;;;14.27;2.47;;;4.20;99.90;;;;;;5057562;28;20108;-73
2022/01/05 06:48:06;;;;;;;20.13;3.90;;;4.10;99.90;;;;;;5057189;28;20053;-72
2022/01/05 06:50:32;;;;;;;13.57;2.88;;;4.20;99.90;;;;;;5040442;28;20043;-73
2022/01/05 06:52:58;;;;;;;15.95;2.33;;;4.10;99.90;;;;;;5057062;28;20066;-73
2022/01/05 06:55:24;;;;;;;15.45;2.40;;;4.20;99.90;;;;;;5040425;28;20081;-73
2022/01/05 06:57:51;;;;;;;20.23;2.85;;;4.20;99.90;;;;;;5057032;28;20060;-73
2022/01/05 07:00:18;;;;;;;17.40;2.75;;;4.20;99.90;;;;;;5057192;28;20400;-73
2022/01/05 07:02:44;;;;;;;14.95;2.20;;;4.20;99.90;;;;;;5057183;28;20067;-71
2022/01/05 07:05:10;;;;;;;10.57;1.80;;;4.20;99.90;;;;;;5056910;28;20492;-72
2022/01/05 07:07:37;;;;;;;13.60;1.75;;;4.20;99.90;;;;;;5057088;28;20097;-72
2022/01/05 07:10:07;;;;;;;13.32;1.50;;;4.20;99.90;;;;;;5056922;28;20052;-72
2022/01/05 07:12:34;;;;;;;8.30;1.50;;;4.20;99.90;;;;;;5056743;28;20120;-72
2022/01/05 07:14:59;;;;;;;10.80;1.60;;;4.20;99.90;;;;;;5057016;28;20047;-72
2022/01/05 07:17:25;;;;;;;9.77;1.95;;;4.20;99.90;;;;;;5056686;28;20062;-72
2022/01/05 07:19:51;;;;;;;7.60;1.25;;;4.20;99.90;;;;;;5056526;28;20077;-72
2022/01/05 07:22:16;;;;;;;11.80;2.13;;;4.10;99.90;;;;;;5056565;28;20073;-72
2022/01/05 07:24:42;;;;;;;10.57;2.45;;;4.10;99.90;;;;;;5056779;28;20076;-72
2022/01/05 07:27:07;;;;;;;7.50;1.30;;;4.10;99.90;;;;;;5056501;28;20562;-72
2022/01/05 07:29:33;;;;;;;9.10;1.38;;;4.10;99.90;;;;;;5056371;28;20075;-72
2022/01/05 07:31:59;;;;;;;12.73;1.58;;;4.10;99.90;;;;;;5056281;28;20048;-72
2022/01/05 07:34:24;;;;;;;10.52;1.33;;;4.10;99.90;;;;;;5056300;28;20049;-72
2022/01/05 07:36:50;;;;;;;9.05;1.10;;;4.10;99.90;;;;;;5055964;28;20552;-72
2022/01/05 07:39:15;;;;;;;9.13;1.40;;;4.10;99.90;;;;;;5056169;28;20089;-72
2022/01/05 07:41:41;;;;;;;6.95;1.40;;;4.10;99.90;;;;;;5056268;28;20032;-72
2022/01/05 07:44:07;;;;;;;9.88;1.25;;;4.10;99.90;;;;;;5056473;28;20036;-72
2022/01/05 07:46:34;;;;;;;8.65;1.40;;;4.10;99.90;;;;;;5056067;28;20068;-72
2022/01/05 07:49:01;;;;;;;9.15;1.40;;;4.10;99.90;;;;;;5056359;28;20103;-72
2022/01/05 07:51:27;;;;;;;7.60;1.40;;;4.10;99.90;;;;;;5055971;28;20049;-72
2022/01/05 07:53:53;;;;;;;10.35;1.80;;;4.20;99.90;;;;;;5056028;28;20115;-71
2022/01/05 07:56:19;;;;;;;13.93;1.40;;;4.20;99.90;;;;;;5039431;28;20457;-72
2022/01/05 07:58:44;;;;;;;9.57;1.75;;;4.30;99.90;;;;;;5055944;28;20043;-72
2022/01/05 08:01:10;;;;;;;15.50;2.33;;;4.30;99.90;;;;;;5055889;28;20050;-72
2022/01/05 08:03:37;;;;;;;12.85;2.05;;;4.30;99.90;;;;;;5055914;28;20408;-72
2022/01/05 08:06:04;;;;;;;11.38;1.80;;;4.40;99.90;;;;;;5055831;28;20066;-72
2022/01/05 08:08:30;;;;;;;13.43;1.70;;;4.40;99.90;;;;;;5055529;28;20036;-72
2022/01/05 08:10:56;;;;;;;11.55;2.70;;;4.50;99.90;;;;;;5055803;28;20550;-72
2022/01/05 08:13:24;;;;;;;11.25;2.03;;;4.60;99.90;;;;;;5055721;28;20032;-72
2022/01/05 08:15:50;;;;;;;21.13;2.65;;;4.60;99.90;;;;;;5055890;28;20127;-72
2022/01/05 08:18:16;;;;;;;16.60;2.40;;;4.70;99.90;;;;;;5055873;28;20119;-72
2022/01/05 08:20:41;;;;;;;15.52;2.10;;;4.80;99.90;;;;;;5056313;28;20128;-72
2022/01/05 08:23:07;;;;;;;16.70;2.17;;;4.80;99.90;;;;;;5056086;28;20190;-72
2022/01/05 08:25:32;;;;;;;17.83;2.45;;;4.90;99.90;;;;;;5056065;28;20571;-72
2022/01/05 08:27:58;;;;;;;13.55;2.03;;;4.90;99.90;;;;;;5039445;28;20040;-72
2022/01/05 08:30:25;;;;;;;12.45;2.05;;;5.00;99.90;;;;;;5055819;28;20480;-72
2022/01/05 08:32:53;;;;;;;15.20;2.33;;;5.00;99.90;;;;;;5056143;28;20051;-72
2022/01/05 08:35:20;;;;;;;14.95;2.28;;;5.00;99.90;;;;;;5038984;28;20036;-73
2022/01/05 08:37:47;;;;;;;14.02;2.97;;;5.00;99.90;;;;;;5038723;28;20037;-72
2022/01/05 08:40:19;;;;;;;10.90;1.67;;;5.00;99.90;;;;;;5055783;28;20032;-73
2022/01/05 08:42:45;;;;;;;10.40;1.60;;;5.00;99.90;;;;;;5055748;28;20049;-73
2022/01/05 08:45:11;;;;;;;13.68;2.40;;;5.00;99.90;;;;;;5055243;28;20055;-73
2022/01/05 08:47:37;;;;;;;9.35;2.05;;;5.10;99.90;;;;;;5054894;28;20036;-73
2022/01/05 08:50:04;;;;;;;12.68;2.28;;;5.20;99.90;;;;;;5038583;28;20051;-74
2022/01/05 08:52:29;;;;;;;14.70;2.47;;;5.20;99.90;;;;;;5055009;28;20123;-72
2022/01/05 08:54:55;;;;;;;12.25;1.77;;;5.20;99.90;;;;;;5055112;28;20170;-72
2022/01/05 08:57:21;;;;;;;13.95;1.80;;;5.30;99.90;;;;;;5055379;28;20040;-72
2022/01/05 08:59:51;;;;;;;13.52;2.13;;;5.30;99.90;;;;;;5054973;28;20382;-72
2022/01/05 09:02:17;;;;;;;9.93;1.98;;;5.30;99.90;;;;;;5055086;28;20493;-72
2022/01/05 09:04:43;;;;;;;7.50;1.38;;;5.40;99.90;;;;;;5055047;28;20037;-73
2022/01/05 09:07:09;;;;;;;12.75;1.60;;;5.40;99.90;;;;;;5055021;28;20044;-73
2022/01/05 09:09:34;;;;;;;8.68;1.63;;;5.50;99.90;;;;;;5054714;28;20040;-73
2022/01/05 09:12:00;;;;;;;11.30;1.40;;;5.50;99.90;;;;;;5055220;28;20042;-73
2022/01/05 09:14:25;;;;;;;12.55;1.70;;;5.60;99.90;;;;;;5054947;28;20390;-73
2022/01/05 09:16:52;;;;;;;12.68;1.63;;;5.60;99.90;;;;;;5054995;28;20128;-72
2022/01/05 09:19:18;;;;;;;12.82;2.00;;;5.70;99.90;;;;;;5054795;28;20032;-72
2022/01/05 09:21:48;;;;;;;14.02;2.10;;;5.70;99.90;;;;;;5054837;28;20109;-72
2022/01/05 09:24:15;;;;;;;13.77;1.85;;;5.70;99.90;;;;;;5055094;28;20044;-72
2022/01/05 09:26:41;;;;;;;16.55;2.47;;;5.70;99.90;;;;;;5054780;28;20087;-72
2022/01/05 09:29:06;;;;;;;17.13;2.25;;;5.70;99.90;;;;;;5054992;28;20040;-72
2022/01/05 09:31:33;;;;;;;15.25;2.25;;;5.70;99.90;;;;;;5054688;28;20071;-72
2022/01/05 09:33:59;;;;;;;15.85;2.75;;;5.70;99.90;;;;;;5038016;28;20044;-72
2022/01/05 09:36:33;;;;;;;20.05;3.15;;;5.70;99.90;;;;;;5055277;28;20036;-72
2022/01/05 09:41:56;;;;;;;16.42;2.85;;;5.70;99.90;;;;;;5025222;28;20044;-72
2022/01/05 09:44:29;;;;;;;19.80;3.45;;;5.80;99.90;;;;;;5054767;28;20079;-72
2022/01/05 09:47:08;;;;;;;16.58;2.53;;;5.80;99.90;;;;;;5055019;28;20063;-72
2022/01/05 09:49:39;;;;;;;26.58;3.35;;;5.80;99.90;;;;;;5054580;28;20170;-72
2022/01/05 09:52:08;;;;;;;23.48;4.00;;;5.80;99.90;;;;;;5054773;28;20044;-72
2022/01/05 09:54:35;;;;;;;24.60;3.80;;;5.90;99.90;;;;;;5054521;28;20048;-72
2022/01/05 09:57:01;;;;;;;21.83;4.00;;;5.90;99.90;;;;;;5054548;28;20032;-73
2022/01/05 09:59:28;;;;;;;24.00;4.03;;;5.90;99.90;;;;;;5056881;28;20036;-72
2022/01/05 10:01:54;;;;;;;26.40;4.00;;;6.00;99.90;;;;;;5058140;28;20508;-72
2022/01/05 10:04:21;;;;;;;26.13;3.80;;;6.00;99.90;;;;;;5058425;28;20125;-73
2022/01/05 10:06:47;;;;;;;20.48;3.67;;;6.00;99.90;;;;;;5058389;28;20040;-72
2022/01/05 10:09:14;;;;;;;27.90;3.85;;;6.10;99.90;;;;;;5057871;28;20094;-72
2022/01/05 10:11:40;;;;;;;24.50;3.95;;;6.10;99.90;;;;;;5041390;28;20488;-73
2022/01/05 10:14:06;;;;;;;23.67;4.20;;;6.20;99.90;;;;;;5057981;28;20037;-73
2022/01/05 10:16:32;;;;;;;26.02;4.10;;;6.20;99.90;;;;;;5041470;28;20037;-73
2022/01/05 10:18:58;;;;;;;28.38;3.85;;;6.30;99.90;;;;;;5058025;28;20090;-73
2022/01/05 10:21:33;;;;;;;27.60;3.58;;;6.30;99.90;;;;;;5058321;28;20036;-73
2022/01/05 10:23:58;;;;;;;26.55;4.05;;;6.40;99.90;;;;;;5057811;28;20047;-73
2022/01/05 10:26:31;;;;;;;25.63;4.32;;;6.50;99.90;;;;;;5057626;28;20036;-73
2022/01/05 10:29:05;;;;;;;24.17;3.58;;;6.50;99.90;;;;;;5057528;28;20048;-72
2022/01/05 10:31:36;;;;;;;28.33;4.30;;;6.60;99.90;;;;;;5057911;28;20058;-73
2022/01/05 10:34:19;;;;;;;21.67;3.50;;;6.60;99.90;;;;;;5057510;28;20489;-74
2022/01/05 10:36:51;;;;;;;25.30;3.83;;;6.70;99.90;;;;;;5041427;28;20072;-74
2022/01/05 10:39:39;;;;;;;32.77;3.90;;;6.70;99.90;;;;;;5057488;28;20127;-74
2022/01/05 10:42:05;;;;;;;19.83;3.47;;;6.80;99.90;;;;;;5040795;28;20072;-74
2022/01/05 10:44:31;;;;;;;23.83;4.22;;;6.90;99.90;;;;;;5057720;28;20032;-74
2022/01/05 10:46:58;;;;;;;25.58;4.03;;;6.90;99.90;;;;;;5057410;28;20475;-74
2022/01/05 10:49:33;;;;;;;21.20;3.85;;;6.90;99.90;;;;;;5057634;28;20116;-74
2022/01/05 10:52:02;;;;;;;22.65;3.83;;;6.90;99.90;;;;;;5057234;28;20052;-74
2022/01/05 10:54:30;;;;;;;23.30;3.97;;;7.00;99.90;;;;;;5057281;28;20045;-74
2022/01/05 10:57:12;;;;;;;22.98;3.20;;;7.00;99.90;;;;;;5040567;28;20443;-74
2022/01/05 10:59:42;;;;;;;23.98;4.47;;;7.10;99.90;;;;;;5040725;28;20102;-74
2022/01/05 11:02:28;;;;;;;21.27;3.65;;;7.20;99.90;;;;;;5057036;28;20066;-74
2022/01/05 11:05:05;;;;;;;22.02;4.05;;;7.30;99.90;;;;;;5040378;28;20036;-74
2022/01/05 11:07:32;;;;;;;24.00;3.42;;;7.40;99.90;;;;;;5040367;28;20036;-74
2022/01/05 11:10:06;;;;;;;25.80;3.70;;;7.40;99.90;;;;;;5056589;28;20120;-74
2022/01/05 11:12:42;;;;;;;16.90;2.97;;;7.50;99.90;;;;;;5040095;28;20037;-74
2022/01/05 11:15:24;;;;;;;23.17;3.13;;;7.60;99.90;;;;;;5056796;28;20033;-74
2022/01/05 11:18:11;;;;;;;24.42;3.20;;;7.70;99.90;;;;;;5057061;28;20033;-74
2022/01/05 11:20:58;;;;;;;23.25;3.75;;;7.80;99.90;;;;;;5056789;28;20047;-74
2022/01/05 11:23:25;;;;;;;16.48;2.67;;;7.80;99.90;;;;;;5056756;28;20484;-74
2022/01/05 11:25:53;;;;;;;17.17;2.95;;;7.90;99.90;;;;;;5040184;28;20397;-74
2022/01/05 11:28:21;;;;;;;19.13;2.90;;;8.20;99.90;;;;;;5040194;28;20080;-74
2022/01/05 11:30:49;;;;;;;21.83;3.47;;;8.90;99.90;;;;;;5056523;28;20055;-74
2022/01/05 11:33:15;;;;;;;16.98;2.70;;;9.50;99.90;;;;;;5056496;28;20048;-74
2022/01/05 11:35:41;;;;;;;16.58;3.80;;;9.90;99.90;;;;;;5039716;28;20037;-75
2022/01/05 11:38:08;;;;;;;13.77;2.22;;;10.40;98.80;;;;;;5056332;28;20032;-75
2022/01/05 11:40:36;;;;;;;14.30;2.25;;;10.70;97.00;;;;;;5056231;28;20079;-75
2022/01/05 11:43:05;;;;;;;13.55;2.20;;;10.80;95.10;;;;;;5056288;28;20040;-75
2022/01/05 11:45:45;;;;;;;8.48;2.22;;;10.90;94.00;;;;;;5056623;28;20036;-75
2022/01/05 11:48:30;;;;;;;15.60;2.13;;;11.00;92.10;;;;;;5056493;28;20131;-71
2022/01/05 11:51:01;;;;;;;12.93;2.40;;;11.00;92.30;;;;;;5056511;28;20568;-72
2022/01/05 11:53:44;;;;;;;12.38;2.10;;;11.10;93.40;;;;;;5056041;28;20086;-72
2022/01/05 11:56:15;;;;;;;20.17;3.63;;;11.00;92.50;;;;;;5057028;28;20040;-72
2022/01/05 11:58:49;;;;;;;16.40;2.75;;;10.50;92.10;;;;;;5056081;28;20040;-72
2022/01/05 12:01:19;;;;;;;14.38;2.72;;;9.90;93.60;;;;;;5056314;28;20082;-72
2022/01/05 12:03:57;;;;;;;12.68;2.10;;;9.20;96.30;;;;;;5056195;28;20063;-72
2022/01/05 12:06:25;;;;;;;11.07;2.80;;;9.30;97.80;;;;;;5056547;28;20040;-72
2022/01/05 12:08:55;;;;;;;16.15;2.83;;;9.70;97.80;;;;;;5055928;28;20036;-72
2022/01/05 12:11:42;;;;;;;8.68;1.42;;;10.10;96.70;;;;;;5039220;28;20036;-72
2022/01/05 12:14:30;;;;;;;11.55;1.80;;;10.40;93.90;;;;;;5055912;28;20048;-71
2022/01/05 12:16:59;;;;;;;12.98;1.77;;;10.50;91.90;;;;;;5055740;28;20132;-73
2022/01/05 12:19:26;;;;;;;11.18;2.13;;;11.10;92.70;;;;;;5039211;28;20119;-73
2022/01/05 12:21:57;;;;;;;11.93;1.90;;;11.60;90.50;;;;;;5055305;28;20055;-73
2022/01/05 12:25:03;;;;;;;15.50;2.38;;;11.90;88.50;;;;;;5055627;28;20488;-72
2022/01/05 12:27:50;;;;;;;12.50;2.25;;;11.90;84.90;;;;;;5055562;28;20044;-72
2022/01/05 12:30:16;;;;;;;17.70;2.50;;;11.90;84.40;;;;;;5039041;28;20106;-72
2022/01/05 12:32:46;;;;;;;16.38;2.65;;;11.90;86.70;;;;;;5055661;28;20504;-72
2022/01/05 12:35:15;;;;;;;13.88;2.58;;;12.10;85.50;;;;;;5055865;28;20044;-72
2022/01/05 12:37:52;;;;;;;15.18;2.60;;;12.70;83.30;;;;;;5055439;28;20059;-72
2022/01/05 12:40:37;;;;;;;15.68;2.75;;;13.30;81.70;;;;;;5055390;28;20094;-73
2022/01/05 12:43:05;;;;;;;19.48;2.95;;;14.00;78.50;;;;;;5055488;28;20067;-73
2022/01/05 12:45:47;;;;;;;16.60;2.78;;;14.50;74.50;;;;;;5055703;28;20135;-72
2022/01/05 12:48:31;;;;;;;12.13;2.67;;;14.80;71.30;;;;;;5055395;28;20044;-70
2022/01/05 12:51:16;;;;;;;14.02;3.00;;;15.20;71.10;;;;;;5038613;28;20085;-70
2022/01/05 12:54:01;;;;;;;19.17;3.00;;;15.00;68.60;;;;;;5038751;28;20097;-70